Flight Track Log - Related Links

Times and Time Zones

All times are in EDT time to prevent confusion due to time zone crossing. See the JBU544 flight status page for this flight to view local times or setup timezone preferences in your user account.

Time Position Orientation Groundspeed Altitude Reporting Facility
EDT Latitude Longitude Course Direction KTS MPH feet Rate Location/Type
Sun 12:35:15 PM 26.6667 -80.0713 305° West  Level FlightAware Approximate
Sun 12:36:15 PM 26.7341 -79.9836 281° West  Level FlightAware Approximate
Sun 12:37:15 PM 26.8167 -80.0574 257° West  Level FlightAware Approximate
Sun 12:38:38 PM 26.7783 -80.2469 321° Northwest 254 292 7,000  Level Miami Center
Sun 12:39:38 PM 26.8294 -80.2928 324° Northwest 260 299 9,300 1,950 Climbing Miami Center
Sun 12:40:38 PM 26.9011 -80.3506 338° Northwest 276 318 10,900 1,550 Climbing Miami Center
Sun 12:41:38 PM 26.9881 -80.3906 337° Northwest 317 365 12,400 2,000 Climbing Miami Center
Sun 12:42:38 PM 27.0828 -80.4356 335° Northwest 360 414 14,900 2,100 Climbing Miami Center
Sun 12:43:38 PM 27.1675 -80.4800 322° Northwest 375 432 16,600 1,950 Climbing Miami Center
Sun 12:44:38 PM 27.2533 -80.5553 329° Northwest 380 437 18,800 2,100 Climbing Miami Center
Sun 12:45:38 PM 27.3475 -80.6189 332° Northwest 391 450 20,800 1,850 Climbing Miami Center
Sun 12:46:38 PM 27.4442 -80.6758 332° Northwest 391 450 22,500 1,550 Climbing Miami Center
Sun 12:47:38 PM 27.5428 -80.7353 333° Northwest 391 450 23,900 1,350 Climbing Miami Center
Sun 12:48:38 PM 27.6414 -80.7925 332° Northwest 397 457 25,200 1,250 Climbing Miami Center
Sun 12:49:38 PM 27.7461 -80.8550 332° Northwest 402 463 26,400 1,200 Climbing Miami Center
Sun 12:50:38 PM 27.8531 -80.9197 333° Northwest 415 478 27,600 1,100 Climbing Miami Center
Sun 12:51:38 PM 27.9597 -80.9822 332° Northwest 421 484 28,600 1,100 Climbing Miami Center
Sun 12:52:38 PM 28.0683 -81.0472 331° Northwest 426 490 29,800 1,350 Climbing Miami Center
Sun 12:53:38 PM 28.1750 -81.1150 332° Northwest 432 497 31,300 1,100 Climbing Miami Center
Sun 12:54:38 PM 28.2836 -81.1803 332° Northwest 432 497 32,000 828 Climbing Miami Center
Sun 12:55:34 PM 28.3814 -81.2386 333° Northwest 438 504 32,900 517 Climbing Jacksonville Center
Sun 12:56:34 PM 28.4864 -81.3006 342° North 438 504 33,000 50 Climbing Jacksonville Center
Sun 12:57:34 PM 28.6058 -81.3436 355° North 438 504 33,000  Level Jacksonville Center
Sun 12:58:34 PM 28.7292 -81.3561 356° North 438 504 33,000  Level Jacksonville Center
Sun 12:59:34 PM 28.8503 -81.3661 355° North 438 504 33,000 -50 Level Jacksonville Center
Sun 01:00:34 PM 28.9736 -81.3783 356° North 438 504 32,900  Descending Jacksonville Center
Sun 01:01:34 PM 29.0906 -81.3883 354° North 432 497 33,000 50 Climbing Jacksonville Center
Sun 01:02:34 PM 29.2119 -81.4033 357° North 432 497 33,000  Level Jacksonville Center
Sun 01:03:34 PM 29.3311 -81.4108 353° North 427 491 33,000  Level Jacksonville Center
Sun 01:04:34 PM 29.4606 -81.4281 356° North 420 483 33,000  Level Jacksonville Center
Sun 01:05:34 PM 29.5839 -81.4383 355° North 428 493 33,000  Level Jacksonville Center
Sun 01:06:33 PM 29.7050 -81.4508 355° North 428 493 33,000 50 Level Jacksonville Center
Sun 01:07:33 PM 29.8200 -81.4633 357° North 440 506 33,100  Climbing Jacksonville Center
Sun 01:08:33 PM 29.9392 -81.4711 354° North 440 506 33,000 -50 Descending Jacksonville Center
Sun 01:09:33 PM 30.0625 -81.4861 356° North 440 506 33,000  Level Jacksonville Center
Sun 01:10:33 PM 30.1858 -81.4964 356° North 440 506 33,000  Level Jacksonville Center
Sun 01:11:33 PM 30.3050 -81.5067 North 440 506 33,000  Level Jacksonville Center
Sun 01:12:33 PM 30.4303 -81.5025 North 440 506 33,000  Level Jacksonville Center
Sun 01:13:33 PM 30.5533 -81.4933 North 440 506 33,000  Level Jacksonville Center
Sun 01:14:33 PM 30.6764 -81.4844 North 440 506 33,000  Level Jacksonville Center
Sun 01:15:33 PM 30.8014 -81.4728 North 440 506 33,000  Level Jacksonville Center
Sun 01:16:33 PM 30.9286 -81.4614 North 440 506 33,000  Level Jacksonville Center
Sun 01:17:33 PM 31.0517 -81.4497 North 445 512 33,000  Level Jacksonville Center
Sun 01:18:33 PM 31.1769 -81.4406 North 445 512 33,000  Level Jacksonville Center
Sun 01:19:33 PM 31.3061 -81.4214 12° North 445 512 33,000  Level Jacksonville Center
Sun 01:20:33 PM 31.4414 -81.3878 13° North 450 518 33,000  Level Jacksonville Center
Sun 01:21:33 PM 31.5558 -81.3567 12° North 450 518 33,000  Level Jacksonville Center
Sun 01:22:33 PM 31.6933 -81.3225 13° North 455 524 33,000  Level Jacksonville Center
Sun 01:23:33 PM 31.8056 -81.2914 19° North 462 532 33,000  Level Jacksonville Center
Sun 01:24:33 PM 31.9303 -81.2403 31° Northeast 462 532 33,000 149 Level Jacksonville Center
Sun 01:25:34 PM 32.0419 -81.1622 29° Northeast 462 532 33,300 397 Climbing Jacksonville Center
Sun 01:26:34 PM 32.1578 -81.0864 29° Northeast 462 532 33,800 550 Climbing Jacksonville Center
Sun 01:27:34 PM 32.2861 -81.0028 30° Northeast 469 540 34,400 550 Climbing Jacksonville Center
Sun 01:28:34 PM 32.3853 -80.9344 29° Northeast 458 527 34,900 300 Climbing Jacksonville Center
Sun 01:29:34 PM 32.5008 -80.8581 31° Northeast 463 533 35,000 50 Climbing Jacksonville Center
Sun 01:30:34 PM 32.6122 -80.7789 30° Northeast 463 533 35,000  Level Jacksonville Center
Sun 01:31:33 PM 32.7258 -80.7022 26° Northeast 456 525 35,000  Level Jacksonville Center
Sun 01:32:34 PM 32.8436 -80.6353 24° Northeast 456 525 35,000  Level Jacksonville Center
Sun 01:33:34 PM 32.9656 -80.5703 26° Northeast 462 532 35,000  Level Jacksonville Center
Sun 01:34:34 PM 33.0875 -80.5000 25° Northeast 475 547 35,000  Level Jacksonville Center
Sun 01:35:34 PM 33.2114 -80.4322 26° Northeast 480 552 35,000  Level Jacksonville Center
Sun 01:36:34 PM 33.3456 -80.3539 25° Northeast 480 552 35,000 -50 Level Jacksonville Center
Sun 01:37:34 PM 33.4672 -80.2858 26° Northeast 480 552 34,900  Descending Jacksonville Center
Sun 01:38:34 PM 33.5908 -80.2122 25° Northeast 480 552 35,000 50 Climbing Jacksonville Center
Sun 01:39:34 PM 33.7106 -80.1436 26° Northeast 480 552 35,000  Level Jacksonville Center
Sun 01:40:34 PM 33.8342 -80.0722 26° Northeast 480 552 35,000 -50 Level Jacksonville Center
Sun 01:41:34 PM 33.9597 -79.9981 25° Northeast 480 552 34,900  Descending Jacksonville Center
Sun 01:42:34 PM 34.0853 -79.9264 26° Northeast 485 558 35,000 33 Climbing Jacksonville Center
Sun 01:44:38 PM 34.3300 -79.7817 25° Northeast 485 558 35,000  Level Washington Center
Sun 01:45:36 PM 34.4533 -79.7122 25° Northeast 490 564 35,000  Level Washington Center
Sun 01:46:37 PM 34.5811 -79.6406 28° Northeast 490 564 35,000  Level Washington Center
Sun 01:47:37 PM 34.6878 -79.5725 26° Northeast 485 558 35,000  Level Washington Center
Sun 01:48:38 PM 34.8111 -79.5003 26° Northeast 485 558 35,000  Level Washington Center
Sun 01:49:36 PM 34.9386 -79.4253 26° Northeast 491 565 35,000  Level Washington Center
Sun 01:50:36 PM 35.0642 -79.3500 25° Northeast 496 571 35,000  Level Washington Center
Sun 01:51:37 PM 35.1897 -79.2772 26° Northeast 496 571 35,000  Level Washington Center
Sun 01:52:38 PM 35.3044 -79.2086 26° Northeast 501 577 35,000  Level Washington Center
Sun 01:53:38 PM 35.4594 -79.1161 26° Northeast 501 577 35,000  Level Washington Center
Sun 01:54:36 PM 35.5847 -79.0425 26° Northeast 501 577 35,000  Level Washington Center
Sun 01:55:37 PM 35.7164 -78.9639 27° Northeast 501 577 35,000  Level Washington Center
Sun 01:56:38 PM 35.8436 -78.8847 26° Northeast 506 582 35,000 454 Level Washington Center
Sun 01:57:36 PM 35.9625 -78.8125 26° Northeast 511 588 35,900 508 Climbing Washington Center
Sun 01:58:36 PM 36.0919 -78.7331 26° Northeast 511 588 36,000 50 Climbing Washington Center
Sun 01:59:37 PM 36.2233 -78.6533 26° Northeast 511 588 36,000  Level Washington Center
Sun 02:00:37 PM 36.3506 -78.5758 27° Northeast 511 588 36,000  Level Washington Center
Sun 02:01:38 PM 36.4797 -78.4956 27° Northeast 511 588 36,000  Level Washington Center
Sun 02:02:38 PM 36.6194 -78.4075 27° Northeast 511 588 36,000  Level Washington Center
Sun 02:03:36 PM 36.7339 -78.3339 27° Northeast 505 581 36,000  Level Washington Center
Sun 02:04:36 PM 36.8778 -78.2431 27° Northeast 510 587 36,000  Level Washington Center
Sun 02:05:36 PM 37.0111 -78.1564 26° Northeast 521 600 36,000  Level Washington Center
Sun 02:06:38 PM 37.1358 -78.0800 27° Northeast 516 594 36,000  Level Washington Center
Sun 02:07:38 PM 37.2669 -77.9953 27° Northeast 516 594 36,000  Level Washington Center
Sun 02:08:38 PM 37.3958 -77.9131 28° Northeast 516 594 36,000  Level Washington Center
Sun 02:09:36 PM 37.5247 -77.8256 34° Northeast 516 594 36,000  Level Washington Center
Sun 02:10:36 PM 37.6433 -77.7242 35° Northeast 516 594 36,000  Level Washington Center
Sun 02:11:38 PM 37.7619 -77.6197 36° Northeast 516 594 36,000  Level Washington Center
Sun 02:12:36 PM 37.8783 -77.5122 36° Northeast 516 594 36,000  Level Washington Center
Sun 02:13:36 PM 37.9947 -77.4047 36° Northeast 516 594 36,000  Level Washington Center
Sun 02:14:37 PM 38.1111 -77.2992 37° Northeast 516 594 36,000  Level Washington Center
Sun 02:15:38 PM 38.2272 -77.1881 35° Northeast 511 588 36,000  Level Washington Center
Sun 02:16:36 PM 38.3475 -77.0794 37° Northeast 511 588 36,000  Level Washington Center
Sun 02:17:36 PM 38.4656 -76.9678 35° Northeast 516 594 36,000  Level Washington Center
Sun 02:18:37 PM 38.5836 -76.8611 37° Northeast 521 600 36,000 -397 Level Washington Center
Sun 02:19:37 PM 38.7014 -76.7489 41° Northeast 526 605 35,200 -893 Descending Washington Center
Sun 02:20:38 PM 38.8108 -76.6253 42° Northeast 526 605 34,200 -958 Descending Washington Center
Sun 02:21:36 PM 38.9078 -76.5119 41° Northeast 520 598 33,300 -1,059 Descending Washington Center
Sun 02:22:37 PM 39.0169 -76.3906 42° Northeast 520 598 32,100 -1,721 Descending Washington Center
Sun 02:23:38 PM 39.1303 -76.2578 41° Northeast 520 598 29,800 -2,269 Descending Washington Center
Sun 02:24:36 PM 39.2539 -76.1169 43° Northeast 526 605 27,600 -1,475 Descending Washington Center
Sun 02:25:36 PM 39.3586 -75.9914 42° Northeast 521 600 26,900 -1,041 Descending Washington Center
Sun 02:26:37 PM 39.4633 -75.8683 43° Northeast 511 588 25,500 -1,488 Descending Washington Center
Sun 02:27:37 PM 39.5636 -75.7450 42° Northeast 506 582 23,900 -1,636 Descending Washington Center
Sun 02:28:38 PM 39.6614 -75.6292 43° Northeast 487 560 22,200 -2,622 Descending Washington Center
Sun 02:29:36 PM 39.7553 -75.5158 42° Northeast 474 545 18,700 -2,773 Descending Washington Center
Sun 02:30:37 PM 39.8467 -75.4078 43° Northeast 456 525 16,700 -1,835 Descending Washington Center
Sun 02:31:37 PM 39.9319 -75.3047 44° Northeast 434 499 15,000 -1,686 Descending Washington Center
Sun 02:32:38 PM 40.0131 -75.2042 45° Northeast 414 476 13,300 -1,563 Descending Washington Center
Sun 02:34:49 PM 40.1833 -74.9833 37° Northeast 360 414 10,000 -1,459 Descending New York TRACON
Sun 02:35:43 PM 40.2500 -74.9167 52° Northeast 307 353 8,800 -1,053 Descending New York TRACON
Sun 02:36:43 PM 40.3000 -74.8333 45° Northeast 302 348 8,000 -400 Descending New York TRACON
Sun 02:37:43 PM 40.3500 -74.7667 11° North 244 281 8,000 -350 Level New York TRACON
Sun 02:38:43 PM 40.4167 -74.7500 14° North 215 247 7,300 -900 Descending New York TRACON
Sun 02:39:43 PM 40.4667 -74.7333 27° Northeast 209 241 6,200 -650 Descending New York TRACON
Sun 02:40:43 PM 40.5167 -74.7000 123° Southeast 209 241 6,000 -350 Descending New York TRACON
Sun 02:41:43 PM 40.5000 -74.6667 180° South 179 206 5,500 -500 Descending New York TRACON
Sun 02:42:43 PM 40.4500 -74.6667 159° South 165 190 5,000 -263 Descending New York TRACON
Sun 02:43:37 PM 40.4167 -74.6500 131° Southeast 171 197 5,000  Level New York TRACON
Sun 02:44:37 PM 40.3833 -74.6000 131° Southeast 174 200 5,000  Level New York TRACON

Login

Don't have an account? Register now (free) for customized features, flight alerts, and more!